Time;durP1;ratioP1;P1;durP2;ratioP2;P2;SDS_P1;SDS_P2;PMS_P1;PMS_P2;Temp;Humidity;BMP_temperature;BMP_pressure;BME280_temperature;BME280_humidity;BME280_pressure;Samples;Min_cycle;Max_cycle;Signal;HPM_P1;HPM_P2
2022/01/02 00:02:19;;;;;;;;;8.67;8.00;;;;;12.93;85.77;101574.72;5037303;28;45307;-69
2022/01/02 00:04:48;;;;;;;;;13.00;8.00;;;;;12.94;86.27;101569.38;5037624;28;45739;-69
2022/01/02 00:07:15;;;;;;;;;13.00;11.00;;;;;12.91;86.57;101561.53;5037298;28;45476;-69
2022/01/02 00:09:45;;;;;;;;;17.33;13.33;;;;;12.70;85.80;101523.16;5036753;28;46582;-69
2022/01/02 00:12:15;;;;;;;;;19.67;15.33;;;;;12.94;86.28;101573.78;5037363;28;45420;-69
2022/01/02 00:14:47;;;;;;;;;15.67;12.00;;;;;12.90;86.19;101559.78;5037558;28;45318;-69
2022/01/02 00:17:16;;;;;;;;;14.00;11.67;;;;;12.92;85.96;101551.81;5037674;28;45421;-69
2022/01/02 00:19:46;;;;;;;;;12.67;11.67;;;;;12.94;85.59;101555.28;5037094;28;46682;-69
2022/01/02 00:22:16;;;;;;;;;12.00;12.00;;;;;12.94;85.11;101552.63;5037106;28;45508;-69
2022/01/02 00:24:43;;;;;;;;;14.00;12.00;;;;;12.87;86.00;101549.25;5037516;28;45292;-69
2022/01/02 00:27:11;;;;;;;;;16.00;12.00;;;;;12.91;86.11;101550.06;5037039;28;45412;-70
2022/01/02 00:29:41;;;;;;;;;10.25;10.25;;;;;12.73;86.62;101519.59;5037184;28;46703;-69
2022/01/02 00:32:08;;;;;;;;;10.50;9.00;;;;;12.91;86.25;101548.31;5036797;28;45254;-70
2022/01/02 00:34:38;;;;;;;;;9.25;9.00;;;;;12.98;86.19;101549.03;5037365;28;45202;-69
2022/01/02 00:37:05;;;;;;;;;13.67;10.33;;;;;12.75;86.69;101504.56;5037404;28;45338;-70
2022/01/02 00:39:31;;;;;;;;;11.50;9.75;;;;;13.00;86.27;101534.03;5036171;28;45386;-70
2022/01/02 00:42:07;;;;;;;;;12.00;11.00;;;;;12.99;87.04;101522.56;5036723;28;45370;-69
2022/01/02 00:44:41;;;;;;;;;10.00;9.67;;;;;13.01;87.18;101514.59;5037019;28;45386;-70
2022/01/02 00:47:23;;;;;;;;;13.25;9.00;;;;;13.00;86.76;101502.31;5029369;28;45396;-71
2022/01/02 00:50:09;;;;;;;;;11.33;8.67;;;;;13.02;86.32;101498.72;5036704;28;45412;-69
2022/01/02 00:52:45;;;;;;;;;11.00;8.75;;;;;12.96;86.27;101480.34;5036025;28;45405;-69
2022/01/02 00:55:13;;;;;;;;;10.75;8.00;;;;;13.00;86.72;101492.59;5040041;28;45495;-70
2022/01/02 00:57:42;;;;;;;;;14.00;9.75;;;;;12.99;86.37;101492.63;5057244;28;45199;-69
2022/01/02 01:00:10;;;;;;;;;9.00;9.00;;;;;12.99;86.06;101503.19;5056467;28;46476;-69
2022/01/02 01:02:48;;;;;;;;;10.00;10.00;;;;;12.99;86.38;101497.91;5056733;28;45549;-69
2022/01/02 01:05:27;;;;;;;;;11.00;10.00;;;;;12.95;85.56;101483.88;5056795;28;45429;-70
2022/01/02 01:08:00;;;;;;;;;10.25;8.75;;;;;12.95;84.78;101489.16;5057760;28;45447;-70
2022/01/02 01:10:29;;;;;;;;;15.33;12.33;;;;;12.96;85.62;101484.75;5060461;28;45333;-70
2022/01/02 01:13:01;;;;;;;;;11.00;10.00;;;;;12.98;85.84;101486.47;5044233;28;45410;-70
2022/01/02 01:15:29;;;;;;;;;10.33;10.00;;;;;12.98;85.24;101478.56;5040182;28;45493;-70
2022/01/02 01:17:56;;;;;;;;;8.50;8.50;;;;;12.98;85.52;101480.31;5040444;28;45379;-69
2022/01/02 01:20:25;;;;;;;;;12.33;10.00;;;;;12.96;84.97;101471.56;5038626;28;47085;-69
2022/01/02 01:22:50;;;;;;;;;11.00;10.00;;;;;12.97;85.01;101474.16;5039598;28;45419;-69
2022/01/02 01:25:18;;;;;;;;;11.00;9.33;;;;;12.98;85.04;101470.63;5040272;28;45280;-69
2022/01/02 01:27:45;;;;;;;;;12.75;11.25;;;;;12.95;84.93;101468.00;5039659;28;45573;-69
2022/01/02 01:30:12;;;;;;;;;10.50;10.00;;;;;12.96;85.27;101479.47;5039657;28;45666;-70
2022/01/02 01:32:37;;;;;;;;;14.75;13.00;;;;;12.85;84.82;101454.16;5039688;28;45385;-70
2022/01/02 01:35:05;;;;;;;;;15.00;11.75;;;;;12.81;84.96;101459.50;5040950;28;45231;-69
2022/01/02 01:37:31;;;;;;;;;10.50;10.50;;;;;12.95;85.14;101475.09;5060122;28;45230;-69
2022/01/02 01:39:56;;;;;;;;;15.25;10.25;;;;;12.91;84.52;101461.09;5050933;28;46545;-68
2022/01/02 01:47:48;;;;;;;;;9.67;9.67;;;;;12.80;85.01;101469.22;4950854;28;45452;-68
2022/01/02 01:50:14;;;;;;;;;11.00;10.67;;;;;12.79;85.35;101454.25;4957893;28;47254;-69
2022/01/02 01:52:41;;;;;;;;;13.33;12.33;;;;;12.68;85.61;101440.41;4958170;28;45361;-69
2022/01/02 01:55:08;;;;;;;;;13.67;13.67;;;;;12.72;85.56;101452.63;4957869;28;45439;-69
2022/01/02 01:57:34;;;;;;;;;12.67;12.33;;;;;12.72;85.52;101450.00;4963612;28;45463;-69
2022/01/02 02:00:02;;;;;;;;;21.33;14.00;;;;;12.61;85.77;101441.44;4977832;28;46568;-69
2022/01/02 02:02:27;;;;;;;;;14.00;11.75;;;;;12.40;86.24;101396.03;4965740;28;45396;-70
2022/01/02 02:04:53;;;;;;;;;10.25;10.25;;;;;12.54;86.33;101433.59;4958706;28;45359;-69
2022/01/02 02:07:26;;;;;;;;;16.00;13.00;;;;;12.50;86.24;101429.31;4958642;28;45577;-69
2022/01/02 02:10:09;;;;;;;;;17.33;15.00;;;;;12.54;86.67;101436.25;4957656;28;46983;-70
2022/01/02 02:12:35;;;;;;;;;14.67;12.33;;;;;12.50;86.80;101425.78;4958213;28;45402;-69
2022/01/02 02:15:01;;;;;;;;;18.33;13.33;;;;;12.46;87.29;101425.00;4958296;28;45507;-69
2022/01/02 02:17:27;;;;;;;;;14.33;14.00;;;;;12.39;87.47;101401.34;4958671;28;45446;-69
2022/01/02 02:20:10;;;;;;;;;13.25;12.00;;;;;12.43;88.30;101403.03;4957516;28;46389;-69
2022/01/02 02:22:40;;;;;;;;;14.33;13.00;;;;;12.38;87.83;101382.00;5013854;28;45255;-70
2022/01/02 02:25:07;;;;;;;;;15.00;11.00;;;;;12.40;88.46;101382.81;5039118;28;45408;-69
2022/01/02 02:27:32;;;;;;;;;12.67;12.67;;;;;12.37;87.87;101372.31;5039146;28;45436;-68
2022/01/02 02:29:58;;;;;;;;;19.33;13.67;;;;;12.45;87.69;101383.63;5038839;28;45435;-69
2022/01/02 02:32:24;;;;;;;;;14.00;14.00;;;;;12.42;87.52;101393.41;5038602;28;45329;-70
2022/01/02 02:34:50;;;;;;;;;13.67;13.00;;;;;12.45;87.41;101385.41;5039230;28;45330;-70
2022/01/02 02:37:15;;;;;;;;;17.67;13.00;;;;;12.39;87.85;101369.66;5039325;28;45440;-70
2022/01/02 02:39:40;;;;;;;;;15.00;12.33;;;;;12.41;88.54;101386.34;5038741;28;45398;-68
2022/01/02 02:42:13;;;;;;;;;15.00;13.67;;;;;12.35;88.46;101374.16;5038887;28;45362;-68
2022/01/02 02:44:40;;;;;;;;;13.00;11.75;;;;;12.29;87.94;101361.94;5038765;28;45349;-69
2022/01/02 02:49:49;;;;;;;;;13.67;11.33;;;;;12.25;88.55;101336.47;5036954;28;45681;-70
2022/01/02 02:52:37;;;;;;;;;12.75;12.75;;;;;12.33;88.21;101368.91;5035151;28;45472;-69
2022/01/02 02:55:03;;;;;;;;;14.50;11.25;;;;;12.34;88.46;101367.13;5038662;28;45429;-69
2022/01/02 02:57:28;;;;;;;;;22.00;21.33;;;;;12.14;89.08;101323.50;5036806;28;45444;-70
2022/01/02 02:59:53;;;;;;;;;12.25;12.25;;;;;12.32;89.13;101361.00;5036578;28;45906;-69
2022/01/02 03:02:19;;;;;;;;;14.25;14.00;;;;;12.39;89.02;101359.09;5037819;28;45499;-70
2022/01/02 03:04:44;;;;;;;;;11.67;11.67;;;;;12.39;88.71;101361.72;5034466;28;45369;-68
2022/01/02 03:07:10;;;;;;;;;13.00;10.33;;;;;12.24;88.69;101328.59;5038383;28;45521;-69
2022/01/02 03:09:47;;;;;;;;;13.00;12.33;;;;;12.33;88.47;101347.78;5037942;28;45431;-69
2022/01/02 03:12:12;;;;;;;;;13.00;11.00;;;;;12.34;89.56;101349.53;5039902;28;45503;-69
2022/01/02 03:14:38;;;;;;;;;13.00;11.00;;;;;12.35;88.90;101338.03;5058380;28;45702;-70
2022/01/02 03:17:04;;;;;;;;;13.33;11.67;;;;;12.29;89.55;101345.22;5048051;28;45544;-69
2022/01/02 03:19:31;;;;;;;;;16.67;13.67;;;;;12.30;89.57;101337.28;5038255;28;45359;-69
2022/01/02 03:21:58;;;;;;;;;13.67;13.67;;;;;12.35;89.35;101326.63;5037517;28;45342;-70
2022/01/02 03:24:23;;;;;;;;;12.00;12.00;;;;;12.34;88.78;101304.63;5038078;28;45314;-71
2022/01/02 03:26:48;;;;;;;;;14.00;11.00;;;;;12.30;89.29;101305.59;5038196;28;45282;-71
2022/01/02 03:29:14;;;;;;;;;13.67;11.33;;;;;12.28;90.73;101304.72;5037798;28;46148;-70
2022/01/02 03:31:39;;;;;;;;;12.67;11.67;;;;;12.30;91.06;101296.78;5036620;28;45440;-70
2022/01/02 03:34:04;;;;;;;;;17.33;14.67;;;;;12.29;91.04;101295.91;5037704;28;45516;-70
2022/01/02 03:36:30;;;;;;;;;15.00;12.00;;;;;12.30;89.77;101292.38;5038139;28;45334;-69
2022/01/02 03:38:55;;;;;;;;;14.33;11.67;;;;;12.35;90.05;101289.63;5037604;28;46293;-71
2022/01/02 03:41:21;;;;;;;;;12.67;11.00;;;;;12.27;90.05;101273.97;5029427;28;45362;-68
2022/01/02 03:43:46;;;;;;;;;15.33;15.00;;;;;12.24;90.04;101286.34;5037831;28;45468;-70
2022/01/02 03:46:12;;;;;;;;;16.33;13.00;;;;;12.27;89.50;101283.66;5037956;28;45442;-70
2022/01/02 03:48:37;;;;;;;;;12.67;11.33;;;;;12.34;89.03;101304.63;5037862;28;46166;-70
2022/01/02 03:51:02;;;;;;;;;19.00;14.67;;;;;12.24;89.97;101281.94;5037636;28;45312;-69
2022/01/02 03:53:28;;;;;;;;;17.33;16.00;;;;;12.29;89.79;101282.72;5037752;28;45349;-70
2022/01/02 03:55:53;;;;;;;;;18.00;15.67;;;;;12.17;89.08;101246.88;5037684;28;45487;-70
2022/01/02 03:58:19;;;;;;;;;17.33;14.67;;;;;12.28;89.95;101272.19;5037452;28;45354;-71
2022/01/02 04:00:48;;;;;;;;;17.00;16.33;;;;;12.27;90.04;101275.72;5037633;28;45440;-70
2022/01/02 04:03:15;;;;;;;;;18.00;14.33;;;;;12.30;89.29;101280.94;5037224;28;45442;-69
2022/01/02 04:05:41;;;;;;;;;19.33;15.67;;;;;12.24;89.24;101270.50;5031004;28;45287;-69
2022/01/02 04:08:06;;;;;;;;;19.67;16.00;;;;;12.13;89.84;101236.44;5037458;28;45349;-69
2022/01/02 04:10:32;;;;;;;;;19.67;14.33;;;;;12.14;90.68;101243.44;5037229;28;45498;-69
2022/01/02 04:12:57;;;;;;;;;14.67;8.33;;;;;12.17;90.37;101260.09;5037032;28;45676;-68
2022/01/02 04:15:22;;;;;;;;;13.33;11.33;;;;;12.09;90.44;101251.44;5037628;28;45386;-68
2022/01/02 04:17:48;;;;;;;;;15.75;11.00;;;;;11.95;90.05;101232.38;5044133;28;46337;-70
2022/01/02 04:20:15;;;;;;;;;15.00;13.33;;;;;12.12;90.86;101266.38;5037514;28;45567;-69
2022/01/02 04:22:41;;;;;;;;;12.67;12.00;;;;;12.12;91.38;101258.44;5036963;28;45354;-71
2022/01/02 04:25:07;;;;;;;;;13.33;12.00;;;;;12.09;91.35;101237.41;5037196;28;45331;-71
2022/01/02 04:27:32;;;;;;;;;12.75;11.00;;;;;12.03;91.90;101214.63;5036972;28;45899;-71
2022/01/02 04:29:58;;;;;;;;;13.00;12.00;;;;;12.03;92.87;101185.59;5034797;28;45446;-70
2022/01/02 04:32:24;;;;;;;;;11.33;11.33;;;;;11.91;93.09;101149.75;5036982;28;45405;-72
2022/01/02 04:34:49;;;;;;;;;12.33;12.00;;;;;12.01;93.13;101158.38;5036823;28;45255;-71
2022/01/02 04:37:15;;;;;;;;;14.00;11.00;;;;;12.02;92.70;101136.34;5051332;28;45618;-69
2022/01/02 04:39:41;;;;;;;;;19.33;14.33;;;;;11.97;92.08;101117.97;5055723;28;45409;-70
2022/01/02 04:42:07;;;;;;;;;14.00;13.33;;;;;11.97;91.65;101115.34;5036522;28;45287;-68
2022/01/02 04:44:32;;;;;;;;;12.00;11.67;;;;;11.98;91.46;101109.19;5037242;28;45439;-70
2022/01/02 04:46:58;;;;;;;;;16.00;14.00;;;;;11.99;90.86;101120.59;5036711;28;46726;-69
2022/01/02 04:49:23;;;;;;;;;15.00;11.00;;;;;11.92;91.33;101089.94;5036972;28;45449;-70
2022/01/02 04:51:51;;;;;;;;;11.67;11.67;;;;;11.99;90.92;101088.91;5036819;28;45322;-70
2022/01/02 04:54:16;;;;;;;;;8.67;8.67;;;;;11.95;91.22;101087.25;5037088;28;45797;-68
2022/01/02 04:56:42;;;;;;;;;13.33;11.00;;;;;11.99;89.57;101102.13;5037151;28;46725;-71
2022/01/02 04:59:07;;;;;;;;;15.67;10.33;;;;;11.98;90.65;101109.19;5036749;28;45271;-68
2022/01/02 05:01:32;;;;;;;;;14.00;11.75;;;;;11.90;89.50;101092.59;5037037;28;45569;-70
2022/01/02 05:03:58;;;;;;;;;10.25;10.25;;;;;11.90;90.39;101095.25;5037043;28;45245;-69
2022/01/02 05:06:23;;;;;;;;;18.00;12.00;;;;;11.95;91.28;101111.00;5036673;28;46074;-68
2022/01/02 05:08:48;;;;;;;;;13.00;11.00;;;;;11.99;90.84;101102.97;5036911;28;45310;-70
2022/01/02 05:11:14;;;;;;;;;12.00;12.00;;;;;12.07;90.86;101097.53;5036661;28;45375;-71
2022/01/02 05:13:40;;;;;;;;;10.75;10.50;;;;;12.04;90.44;101097.63;5036996;28;45880;-71
2022/01/02 05:16:05;;;;;;;;;10.00;9.50;;;;;11.97;89.46;101091.59;5036459;28;46443;-69
2022/01/02 05:18:31;;;;;;;;;12.00;10.25;;;;;12.05;90.00;101106.38;5036670;28;45491;-69
2022/01/02 05:20:56;;;;;;;;;10.00;8.25;;;;;12.05;89.61;101093.19;5036704;28;45257;-70
2022/01/02 05:23:22;;;;;;;;;12.00;10.50;;;;;12.08;88.43;101091.34;5036875;28;45599;-70
2022/01/02 05:25:47;;;;;;;;;17.33;16.00;;;;;12.07;88.79;101108.09;5036147;28;47319;-69
2022/01/02 05:28:13;;;;;;;;;16.33;10.33;;;;;12.04;87.84;101092.34;5036542;28;45334;-69
2022/01/02 05:30:40;;;;;;;;;11.50;10.50;;;;;11.98;87.93;101089.81;5035886;28;45456;-70
2022/01/02 05:33:06;;;;;;;;;12.00;11.00;;;;;11.94;87.96;101104.00;5031287;28;45434;-68
2022/01/02 05:35:32;;;;;;;;;13.00;11.00;;;;;11.89;87.71;101109.31;5034792;28;45448;-70
2022/01/02 05:37:58;;;;;;;;;11.75;9.75;;;;;11.87;88.72;101103.22;5036054;28;45248;-68
2022/01/02 05:40:30;;;;;;;;;8.50;8.50;;;;;11.87;87.88;101073.34;5036200;28;45465;-71
2022/01/02 05:43:03;;;;;;;;;10.75;10.75;;;;;11.85;88.75;101068.97;5036423;28;45290;-69
2022/01/02 05:45:29;;;;;;;;;13.75;11.00;;;;;11.88;87.47;101048.69;5036019;28;46558;-69
2022/01/02 05:47:54;;;;;;;;;12.25;9.25;;;;;11.71;87.87;101026.19;5036161;28;45394;-69
2022/01/02 05:50:20;;;;;;;;;12.00;10.00;;;;;11.80;88.64;101052.34;5035942;28;45570;-70
2022/01/02 05:52:46;;;;;;;;;11.33;11.33;;;;;11.88;88.00;101060.13;5029342;28;45441;-68
2022/01/02 05:55:11;;;;;;;;;12.00;9.67;;;;;11.84;87.98;101080.41;5037598;28;46073;-69
2022/01/02 05:57:37;;;;;;;;;15.00;13.67;;;;;11.91;87.59;101098.75;5039311;28;45273;-69
2022/01/02 06:00:04;;;;;;;;;13.00;12.00;;;;;11.82;87.60;101082.22;5039450;28;45390;-66
2022/01/02 06:02:31;;;;;;;;;11.00;9.33;;;;;11.85;87.67;101082.16;5037306;28;45406;-67
2022/01/02 06:05:02;;;;;;;;;8.25;8.25;;;;;11.91;87.66;101101.38;5048371;28;45275;-67
2022/01/02 06:07:28;;;;;;;;;13.00;11.25;;;;;11.83;87.72;101075.19;5040383;28;45480;-67
2022/01/02 06:09:53;;;;;;;;;10.00;8.67;;;;;11.83;87.62;101072.53;5038659;28;45426;-66
2022/01/02 06:12:19;;;;;;;;;11.00;8.75;;;;;11.83;87.22;101061.97;5039672;28;45525;-66
2022/01/02 06:14:44;;;;;;;;;12.00;11.75;;;;;11.71;87.23;101052.59;5038758;28;46245;-66
2022/01/02 06:17:09;;;;;;;;;11.33;11.00;;;;;11.72;87.46;101069.28;5038944;28;45191;-68
2022/01/02 06:19:35;;;;;;;;;12.75;11.00;;;;;11.67;87.25;101078.16;5038624;28;45343;-67
2022/01/02 06:22:01;;;;;;;;;12.33;12.33;;;;;11.58;87.39;101059.03;5038959;28;45230;-67
2022/01/02 06:24:26;;;;;;;;;10.00;10.00;;;;;11.56;87.79;101074.91;5038703;28;47285;-68
2022/01/02 06:26:52;;;;;;;;;22.67;19.67;;;;;11.55;87.67;101081.06;5038693;28;45657;-68
2022/01/02 06:29:17;;;;;;;;;12.33;9.00;;;;;11.51;88.04;101066.19;5037795;28;45762;-68
2022/01/02 06:31:42;;;;;;;;;9.67;8.00;;;;;11.49;88.46;101068.03;5038827;28;45398;-67
2022/01/02 06:34:11;;;;;;;;;14.00;11.00;;;;;11.54;87.88;101086.38;5038273;28;47045;-67
2022/01/02 06:36:36;;;;;;;;;9.67;9.67;;;;;11.64;87.29;101103.75;5055717;28;45320;-66
2022/01/02 06:39:02;;;;;;;;;9.00;9.00;;;;;11.63;87.63;101109.91;5055261;28;45432;-66
2022/01/02 06:41:28;;;;;;;;;12.00;11.67;;;;;11.66;87.32;101099.28;5038813;28;45587;-68
2022/01/02 06:43:53;;;;;;;;;13.67;11.67;;;;;11.66;87.79;101102.81;5038633;28;45505;-68
2022/01/02 06:46:19;;;;;;;;;13.33;12.33;;;;;11.47;88.39;101065.41;5038848;28;45235;-68
2022/01/02 06:48:45;;;;;;;;;15.00;14.00;;;;;11.61;89.19;101080.06;5038818;28;45388;-67
2022/01/02 06:51:10;;;;;;;;;13.00;12.00;;;;;11.64;89.91;101106.38;5035295;28;45511;-66
2022/01/02 06:53:39;;;;;;;;;15.33;12.33;;;;;11.60;89.63;101112.59;5018271;28;46008;-68
2022/01/02 06:56:04;;;;;;;;;13.33;11.67;;;;;11.64;89.74;101117.78;5018124;28;45373;-66
2022/01/02 06:58:30;;;;;;;;;17.00;11.33;;;;;11.42;89.83;101079.59;5018630;28;45456;-68
2022/01/02 07:00:56;;;;;;;;;14.33;12.33;;;;;11.64;89.66;101114.28;5018830;28;45330;-68
2022/01/02 07:03:22;;;;;;;;;14.00;10.00;;;;;11.61;89.40;101107.31;5018330;28;45389;-68
2022/01/02 07:05:47;;;;;;;;;18.33;14.33;;;;;11.62;88.67;101090.59;5018049;28;45333;-68
2022/01/02 07:08:13;;;;;;;;;15.67;12.00;;;;;11.64;88.60;101087.91;5018131;28;45505;-68
2022/01/02 07:10:38;;;;;;;;;15.00;15.00;;;;;11.66;88.29;101088.72;5018521;28;45714;-68
2022/01/02 07:13:06;;;;;;;;;22.33;14.33;;;;;11.60;88.50;101073.94;5018373;28;45502;-69
2022/01/02 07:15:32;;;;;;;;;15.67;12.67;;;;;11.58;88.09;101056.41;5018049;28;45513;-68
2022/01/02 07:17:58;;;;;;;;;15.67;12.00;;;;;11.70;88.21;101081.63;5018093;28;45471;-68
2022/01/02 07:20:24;;;;;;;;;18.00;14.67;;;;;11.71;88.39;101078.97;5018812;28;45537;-68
2022/01/02 07:22:50;;;;;;;;;16.00;12.67;;;;;11.69;88.47;101080.78;5018229;28;45381;-69
2022/01/02 07:25:19;;;;;;;;;17.00;15.33;;;;;11.64;88.54;101080.00;5018543;28;45412;-68
2022/01/02 07:27:45;;;;;;;;;19.00;14.67;;;;;11.62;88.53;101082.66;5018442;28;45283;-68
2022/01/02 07:30:10;;;;;;;;;16.33;14.00;;;;;11.54;88.45;101062.63;5018610;28;45499;-68
2022/01/02 07:32:37;;;;;;;;;9.67;8.33;;;;;11.51;88.70;101071.47;5033375;28;45716;-68
2022/01/02 07:35:06;;;;;;;;;10.67;10.33;;;;;11.41;88.82;101064.66;5041769;28;45370;-68
2022/01/02 07:37:33;;;;;;;;;16.00;13.33;;;;;11.48;88.16;101080.31;5054406;28;45413;-68
2022/01/02 07:39:58;;;;;;;;;22.00;15.00;;;;;11.45;88.43;101067.19;5037963;28;45475;-69
2022/01/02 07:42:23;;;;;;;;;22.00;20.33;;;;;11.40;88.81;101079.63;5043953;28;45553;-68
2022/01/02 07:44:49;;;;;;;;;20.00;13.67;;;;;11.46;88.81;101091.81;5057365;28;45510;-68
2022/01/02 07:47:14;;;;;;;;;17.67;11.00;;;;;11.43;89.01;101094.50;5051496;28;45572;-68
2022/01/02 07:49:39;;;;;;;;;18.00;12.00;;;;;11.42;89.14;101098.06;5038617;28;45416;-68
2022/01/02 07:52:05;;;;;;;;;16.00;14.33;;;;;11.22;89.28;101065.03;5045720;28;45399;-68
2022/01/02 07:54:30;;;;;;;;;15.33;14.33;;;;;11.50;89.53;101098.75;5057398;28;45388;-68
2022/01/02 07:56:55;;;;;;;;;13.33;13.33;;;;;11.46;88.93;101095.31;5057393;28;45239;-69
2022/01/02 07:59:21;;;;;;;;;17.67;14.00;;;;;11.61;88.89;101098.53;5056448;28;45278;-69
2022/01/02 08:01:46;;;;;;;;;16.00;13.00;;;;;11.63;88.38;101107.25;5037302;28;46409;-69
2022/01/02 08:04:12;;;;;;;;;12.33;11.67;;;;;11.67;88.41;101103.66;5037531;28;45275;-68
2022/01/02 08:06:37;;;;;;;;;16.33;12.33;;;;;11.55;88.68;101080.22;5037416;28;45239;-70
2022/01/02 08:09:03;;;;;;;;;14.67;14.67;;;;;11.75;87.90;101106.13;5037968;28;45415;-69
2022/01/02 08:11:28;;;;;;;;;14.33;12.33;;;;;11.76;87.83;101114.03;5037374;28;46196;-71
2022/01/02 08:13:54;;;;;;;;;17.00;16.67;;;;;11.67;87.83;101090.47;5037254;28;45365;-70
2022/01/02 08:16:19;;;;;;;;;18.00;14.67;;;;;11.75;88.20;101100.84;5037914;28;45456;-69
2022/01/02 08:18:44;;;;;;;;;17.00;13.33;;;;;11.70;88.38;101089.56;5036693;28;45353;-69
2022/01/02 08:21:10;;;;;;;;;14.33;14.33;;;;;11.70;88.01;101090.41;5037464;28;46176;-72
2022/01/02 08:23:35;;;;;;;;;17.00;11.67;;;;;11.52;88.17;101065.31;5037337;28;45421;-69
2022/01/02 08:26:02;;;;;;;;;13.67;10.33;;;;;11.76;88.04;101102.59;5037197;28;45515;-69
2022/01/02 08:28:27;;;;;;;;;14.67;12.00;;;;;11.78;88.03;101103.44;5037598;28;45399;-69
2022/01/02 08:30:52;;;;;;;;;8.75;6.75;;;;;11.66;88.31;101091.38;5036848;28;45406;-70
2022/01/02 08:33:18;;;;;;;;;12.67;11.00;;;;;11.54;88.33;101068.78;5037342;28;45298;-69
2022/01/02 08:35:45;;;;;;;;;15.33;13.00;;;;;11.81;88.34;101116.56;5037344;28;45403;-68
2022/01/02 08:38:11;;;;;;;;;15.67;12.00;;;;;11.87;87.87;101120.84;5037376;28;45410;-69
2022/01/02 08:40:38;;;;;;;;;14.33;9.67;;;;;11.87;88.07;101116.44;5037067;28;46639;-69
2022/01/02 08:43:04;;;;;;;;;10.67;10.67;;;;;11.92;88.10;101108.41;5036538;28;45411;-69
2022/01/02 08:45:30;;;;;;;;;13.00;12.00;;;;;11.82;87.79;101100.69;5036770;28;45365;-69
2022/01/02 08:47:55;;;;;;;;;15.00;12.00;;;;;11.84;87.68;101116.50;5037077;28;45306;-69
2022/01/02 08:50:20;;;;;;;;;9.00;8.67;;;;;11.82;88.48;101113.00;5043842;28;45509;-69
2022/01/02 08:52:46;;;;;;;;;13.00;9.67;;;;;11.93;88.05;101118.94;5056417;28;45405;-70
2022/01/02 08:55:11;;;;;;;;;12.67;12.67;;;;;12.00;88.11;101124.97;5056116;28;45765;-72
2022/01/02 08:57:37;;;;;;;;;10.67;10.67;;;;;12.00;88.07;101111.78;5053769;28;45211;-69
2022/01/02 09:00:05;;;;;;;;;16.00;11.67;;;;;12.07;88.24;101129.22;5036405;28;45868;-69
2022/01/02 09:02:30;;;;;;;;;10.00;9.75;;;;;12.04;88.33;101110.81;5042526;28;45492;-70
2022/01/02 09:04:55;;;;;;;;;12.33;10.00;;;;;12.13;88.29;101122.94;5039241;28;45417;-69
2022/01/02 09:07:21;;;;;;;;;14.00;13.00;;;;;12.25;87.81;101127.91;5056781;28;45300;-69
2022/01/02 09:09:46;;;;;;;;;12.33;12.33;;;;;12.29;87.82;101139.28;5056148;28;46547;-69
2022/01/02 09:12:14;;;;;;;;;14.00;13.00;;;;;12.30;88.04;101128.69;5056199;28;45476;-69
2022/01/02 09:14:40;;;;;;;;;11.33;10.00;;;;;12.39;87.99;101124.94;5056472;28;45479;-69
2022/01/02 09:17:05;;;;;;;;;16.00;11.67;;;;;12.40;87.59;101121.38;5053726;28;45314;-69
2022/01/02 09:19:31;;;;;;;;;14.33;12.00;;;;;12.50;87.67;101122.03;5042995;28;46593;-69
2022/01/02 09:21:56;;;;;;;;;14.00;11.00;;;;;12.48;87.58;101115.94;5043284;28;45417;-68
2022/01/02 09:24:21;;;;;;;;;13.67;12.33;;;;;12.47;87.38;101124.75;5056347;28;45783;-71
2022/01/02 09:26:47;;;;;;;;;11.00;11.00;;;;;12.51;87.63;101129.06;5056492;28;45404;-72
2022/01/02 09:29:12;;;;;;;;;11.33;11.33;;;;;12.62;87.17;101136.69;5057819;28;46287;-72
2022/01/02 09:31:38;;;;;;;;;10.00;10.00;;;;;12.66;86.97;101141.91;5059318;28;45602;-72
2022/01/02 09:34:03;;;;;;;;;11.67;9.00;;;;;12.67;86.77;101126.91;5056860;28;45387;-69
2022/01/02 09:36:28;;;;;;;;;12.00;11.33;;;;;12.80;86.52;101138.03;5059378;28;45242;-72
2022/01/02 09:38:54;;;;;;;;;13.33;12.33;;;;;12.87;86.36;101131.69;5060035;28;45377;-71
2022/01/02 09:41:20;;;;;;;;;15.67;14.67;;;;;12.91;86.55;101135.09;5060039;28;45386;-73
2022/01/02 09:43:50;;;;;;;;;13.00;13.00;;;;;12.99;86.82;101148.97;5048326;28;45222;-69
2022/01/02 09:46:21;;;;;;;;;12.00;11.00;;;;;13.03;86.83;101142.72;5036501;28;45393;-69
2022/01/02 09:48:48;;;;;;;;;31.00;21.00;;;;;13.17;86.52;101147.59;5032492;28;45495;-69
2022/01/02 09:51:16;;;;;;;;;12.67;11.00;;;;;13.24;85.90;101146.53;5039058;28;45465;-69
2022/01/02 09:53:44;;;;;;;;;10.67;10.00;;;;;13.23;86.41;101164.19;5039753;28;45465;-69
2022/01/02 09:56:10;;;;;;;;;14.33;10.00;;;;;13.29;86.91;101163.16;5032107;28;45476;-70
2022/01/02 09:58:36;;;;;;;;;9.67;9.67;;;;;13.38;86.06;101155.00;5047627;28;47430;-69
2022/01/02 10:01:02;;;;;;;;;12.75;9.75;;;;;13.48;85.80;101166.19;5058851;28;45550;-70
2022/01/02 10:03:41;;;;;;;;;10.00;9.00;;;;;13.54;86.62;101173.94;5058253;28;45621;-69
2022/01/02 10:06:07;;;;;;;;;11.25;8.50;;;;;13.53;86.19;101168.69;5058931;28;45488;-70
2022/01/02 10:08:38;;;;;;;;;9.00;7.00;;;;;13.60;86.52;101185.28;5059472;28;45500;-69
2022/01/02 10:11:15;;;;;;;;;8.00;8.00;;;;;13.50;86.83;101169.66;5058269;28;45415;-69
2022/01/02 10:13:54;;;;;;;;;9.75;6.75;;;;;13.58;86.65;101185.31;5029878;28;45498;-68
2022/01/02 10:16:22;;;;;;;;;9.00;8.75;;;;;13.56;87.21;101188.00;5059209;28;45526;-68
2022/01/02 10:18:49;;;;;;;;;8.25;6.00;;;;;13.56;87.25;101187.13;5058793;28;46920;-68
2022/01/02 10:21:35;;;;;;;;;13.33;9.00;;;;;13.57;87.22;101197.66;5058901;28;45441;-69
2022/01/02 10:24:16;;;;;;;;;10.75;7.25;;;;;13.57;86.92;101195.03;5054243;28;45417;-67
2022/01/02 10:27:02;;;;;;;;;9.00;6.75;;;;;13.56;87.35;101195.94;5037130;28;45310;-66
2022/01/02 10:29:39;;;;;;;;;8.00;7.00;;;;;13.56;87.48;101198.59;5058579;28;45496;-66
2022/01/02 10:32:23;;;;;;;;;10.25;6.75;;;;;13.56;87.69;101201.25;5058616;28;45381;-66
2022/01/02 10:34:50;;;;;;;;;10.33;9.33;;;;;13.57;87.59;101192.38;5045746;28;45754;-68
2022/01/02 10:37:25;;;;;;;;;6.00;6.00;;;;;13.55;86.84;101191.56;5054228;28;45440;-73
2022/01/02 10:39:51;;;;;;;;;8.00;5.33;;;;;13.64;86.94;101202.81;5058896;28;45367;-67
2022/01/02 10:42:18;;;;;;;;;9.33;8.00;;;;;13.66;87.13;101198.31;5041287;28;45405;-66
2022/01/02 10:44:44;;;;;;;;;8.00;8.00;;;;;13.70;86.89;101192.91;5043569;28;45227;-66
2022/01/02 10:47:16;;;;;;;;;15.33;13.33;;;;;13.73;86.99;101191.94;5057890;28;45418;-66
2022/01/02 10:50:03;;;;;;;;;9.33;8.00;;;;;13.81;86.01;101189.97;5057459;28;46898;-67
2022/01/02 10:52:40;;;;;;;;;10.00;7.00;;;;;13.82;86.10;101181.09;5040608;28;45288;-69
2022/01/02 10:55:26;;;;;;;;;8.00;6.25;;;;;13.71;85.99;101172.63;5057826;28;45494;-67
2022/01/02 10:57:57;;;;;;;;;8.50;5.50;;;;;13.59;85.99;101147.34;5058169;28;45924;-68
2022/01/02 11:00:25;;;;;;;;;6.75;6.75;;;;;13.69;86.13;101177.91;5057490;28;45635;-67
2022/01/02 11:02:51;;;;;;;;;11.75;8.00;;;;;13.72;85.80;101185.81;5057802;28;45282;-68
2022/01/02 11:05:19;;;;;;;;;7.00;5.25;;;;;13.68;86.04;101172.69;5058905;28;45353;-70
2022/01/02 11:07:48;;;;;;;;;8.33;6.00;;;;;13.74;85.90;101181.31;5050366;28;46642;-69
2022/01/02 11:10:20;;;;;;;;;7.50;6.00;;;;;13.75;86.60;101190.13;5041297;28;45322;-67
2022/01/02 11:12:47;;;;;;;;;3.75;2.75;;;;;13.67;86.30;101170.97;5050948;28;45445;-69
2022/01/02 11:15:15;;;;;;;;;9.50;5.75;;;;;13.69;86.66;101171.78;5046866;28;45350;-68
2022/01/02 11:17:41;;;;;;;;;6.75;6.25;;;;;13.80;86.17;101185.56;5057171;28;45343;-68
2022/01/02 11:20:09;;;;;;;;;6.75;5.00;;;;;13.78;86.10;101160.91;5057749;28;46620;-68
2022/01/02 11:22:54;;;;;;;;;8.00;5.75;;;;;13.86;85.77;101173.94;5057054;28;45413;-68